createdAt,value
2023-08-14T00:01:22.925Z,3.72
2023-08-14T00:03:52.641Z,2.85
2023-08-14T00:06:20.786Z,3.80
2023-08-14T00:08:48.582Z,3.40
2023-08-14T00:11:16.426Z,3.25
2023-08-14T00:13:52.318Z,3.22
2023-08-14T00:16:22.235Z,3.67
2023-08-14T00:18:50.598Z,3.35
2023-08-14T00:21:18.553Z,3.85
2023-08-14T00:23:46.395Z,3.45
2023-08-14T00:26:14.237Z,3.63
2023-08-14T00:28:42.265Z,3.78
2023-08-14T00:31:10.195Z,3.63
2023-08-14T00:33:39.418Z,4.03
2023-08-14T00:36:07.954Z,3.20
2023-08-14T00:38:36.526Z,3.70
2023-08-14T00:41:04.811Z,3.22
2023-08-14T00:43:32.618Z,3.78
2023-08-14T00:46:02.243Z,3.85
2023-08-14T00:48:30.661Z,3.63
2023-08-14T00:51:00.612Z,3.47
2023-08-14T00:53:30.807Z,3.42
2023-08-14T00:56:01.408Z,3.60
2023-08-14T00:58:30.089Z,3.78
2023-08-14T01:00:59.650Z,3.90
2023-08-14T01:03:27.646Z,3.70
2023-08-14T01:05:55.977Z,4.45
2023-08-14T01:08:25.900Z,3.40
2023-08-14T01:11:01.827Z,4.60
2023-08-14T01:13:38.769Z,4.03
2023-08-14T01:16:09.878Z,4.05
2023-08-14T01:18:41.192Z,4.75
2023-08-14T01:21:18.665Z,4.10
2023-08-14T01:24:03.138Z,3.92
2023-08-14T01:26:33.563Z,3.90
2023-08-14T01:29:04.125Z,4.28
2023-08-14T01:31:32.427Z,4.10
2023-08-14T01:34:00.326Z,4.18
2023-08-14T01:36:35.403Z,4.65
2023-08-14T01:39:09.371Z,4.30
2023-08-14T01:41:45.401Z,4.50
2023-08-14T01:44:17.076Z,3.75
2023-08-14T01:46:47.901Z,3.92
2023-08-14T01:49:18.737Z,3.60
2023-08-14T01:51:48.372Z,4.57
2023-08-14T01:54:16.188Z,4.20
2023-08-14T01:56:45.632Z,4.15
2023-08-14T01:59:13.546Z,4.22
2023-08-14T02:01:41.391Z,3.65
2023-08-14T02:04:10.199Z,3.85
2023-08-14T02:06:38.068Z,4.07
2023-08-14T02:09:06.370Z,3.53
2023-08-14T02:11:34.169Z,4.25
2023-08-14T02:14:03.390Z,3.70
2023-08-14T02:16:31.154Z,4.03
2023-08-14T02:18:59.027Z,4.25
2023-08-14T02:21:26.900Z,4.40
2023-08-14T02:23:54.649Z,4.07
2023-08-14T02:26:22.523Z,4.45
2023-08-14T02:28:50.274Z,4.20
2023-08-14T02:31:19.874Z,4.38
2023-08-14T02:33:47.741Z,4.13
2023-08-14T02:36:15.517Z,4.32
2023-08-14T02:38:43.372Z,4.28
2023-08-14T02:41:12.850Z,4.70
2023-08-14T02:43:40.721Z,4.45
2023-08-14T02:46:09.915Z,4.85
2023-08-14T02:48:41.258Z,4.18
2023-08-14T02:51:09.276Z,4.65
2023-08-14T02:53:37.081Z,4.72
2023-08-14T02:56:05.197Z,4.40
2023-08-14T02:58:33.130Z,4.88
2023-08-14T03:01:01.425Z,4.75
2023-08-14T03:03:29.395Z,5.32
2023-08-14T03:06:00.901Z,5.35
2023-08-14T03:08:28.924Z,5.45
2023-08-14T03:10:56.747Z,4.50
2023-08-14T03:13:24.532Z,4.82
2023-08-14T03:15:52.379Z,4.38
2023-08-14T03:18:20.217Z,4.30
2023-08-14T03:20:48.105Z,4.55
2023-08-14T03:23:17.212Z,4.40
2023-08-14T03:25:45.400Z,4.50
2023-08-14T03:28:13.226Z,5.13
2023-08-14T03:30:43.779Z,4.00
2023-08-14T03:33:14.097Z,5.63
2023-08-14T03:35:41.963Z,5.30
2023-08-14T03:38:09.836Z,4.97
2023-08-14T03:40:39.066Z,4.97
2023-08-14T03:43:06.897Z,4.70
2023-08-14T03:45:34.731Z,4.07
2023-08-14T03:48:02.506Z,4.57
2023-08-14T03:50:30.346Z,5.00
2023-08-14T03:52:58.432Z,5.25
2023-08-14T03:55:26.284Z,4.38
2023-08-14T03:57:55.633Z,5.25
2023-08-14T04:00:23.514Z,5.10
2023-08-14T04:02:51.512Z,5.30
2023-08-14T04:05:19.496Z,4.70
2023-08-14T04:07:47.322Z,5.28
2023-08-14T04:10:15.109Z,4.82
2023-08-14T04:12:42.867Z,5.32
2023-08-14T04:15:16.026Z,5.22
2023-08-14T04:17:44.325Z,5.20
2023-08-14T04:20:13.138Z,5.25
2023-08-14T04:22:41.038Z,5.55
2023-08-14T04:25:09.437Z,5.10
2023-08-14T04:27:37.929Z,5.05
2023-08-14T04:30:07.417Z,4.70
2023-08-14T04:32:37.513Z,5.90
2023-08-14T04:35:06.224Z,5.32
2023-08-14T04:37:34.324Z,5.75
2023-08-14T04:40:02.171Z,4.47
2023-08-14T04:42:31.000Z,4.13
2023-08-14T04:44:58.825Z,4.07
2023-08-14T04:47:26.635Z,4.85
2023-08-14T04:49:55.968Z,4.70
2023-08-14T04:52:24.445Z,4.88
2023-08-14T04:54:54.190Z,4.90
2023-08-14T04:57:24.674Z,5.90
2023-08-14T04:59:52.735Z,5.50
2023-08-14T05:02:20.582Z,5.53
2023-08-14T05:04:48.673Z,5.00
2023-08-14T05:07:17.869Z,5.53
2023-08-14T05:09:45.751Z,5.15
2023-08-14T05:12:13.575Z,5.03
2023-08-14T05:14:41.382Z,4.88
2023-08-14T05:17:09.397Z,5.53
2023-08-14T05:19:37.168Z,4.63
2023-08-14T05:22:05.513Z,4.72
2023-08-14T05:24:34.693Z,5.10
2023-08-14T05:27:02.542Z,4.65
2023-08-14T05:29:30.306Z,4.70
2023-08-14T05:31:58.869Z,4.97
2023-08-14T05:34:26.664Z,4.18
2023-08-14T05:36:54.549Z,4.80
2023-08-14T05:39:22.318Z,4.88
2023-08-14T05:41:51.865Z,4.82
2023-08-14T05:44:19.810Z,4.70
2023-08-14T05:46:49.561Z,4.65
2023-08-14T05:49:17.989Z,4.10
2023-08-14T05:51:46.517Z,4.55
2023-08-14T05:54:14.364Z,4.22
2023-08-14T05:56:42.169Z,4.60
2023-08-14T05:59:11.412Z,3.63
2023-08-14T06:01:40.698Z,4.22
2023-08-14T06:04:08.787Z,3.83
2023-08-14T06:06:36.809Z,3.40
2023-08-14T06:09:04.990Z,3.88
2023-08-14T06:11:32.823Z,3.60
2023-08-14T06:14:00.567Z,3.60
2023-08-14T06:16:29.980Z,3.75
2023-08-14T06:18:57.836Z,3.55
2023-08-14T06:21:25.602Z,3.70
2023-08-14T06:23:53.495Z,3.50
2023-08-14T06:26:22.311Z,3.45
2023-08-14T06:28:50.223Z,3.67
2023-08-14T06:31:18.057Z,3.63
2023-08-14T06:33:47.955Z,3.40
2023-08-14T06:36:16.308Z,3.30
2023-08-14T06:38:44.050Z,3.50
2023-08-14T06:41:11.856Z,4.03
2023-08-14T06:43:39.705Z,4.60
2023-08-14T06:46:07.531Z,2.88
2023-08-14T06:48:35.334Z,3.17
2023-08-14T06:51:04.516Z,2.75
2023-08-14T06:53:32.876Z,3.15
2023-08-14T06:56:00.806Z,3.22
2023-08-14T06:58:28.613Z,2.92
2023-08-14T07:00:57.339Z,4.85
2023-08-14T07:03:25.226Z,3.20
2023-08-14T07:05:53.019Z,4.65
2023-08-14T07:08:22.177Z,3.83
2023-08-14T07:10:50.216Z,3.10
2023-08-14T07:13:18.089Z,2.65
2023-08-14T07:15:48.598Z,2.72
2023-08-14T07:18:17.084Z,3.40
2023-08-14T07:20:46.331Z,3.15
2023-08-14T07:23:14.184Z,2.88
2023-08-14T07:25:43.368Z,2.53
2023-08-14T07:28:11.145Z,3.15
2023-08-14T07:30:39.902Z,2.90
2023-08-14T07:33:09.070Z,3.08
2023-08-14T07:35:37.083Z,3.40
2023-08-14T07:38:05.641Z,3.28
2023-08-14T07:40:33.518Z,2.88
2023-08-14T07:43:02.653Z,2.80
2023-08-14T07:45:30.480Z,3.05
2023-08-14T07:47:58.352Z,3.05
2023-08-14T07:50:26.245Z,3.47
2023-08-14T07:52:54.037Z,3.30
2023-08-14T07:55:22.045Z,4.00
2023-08-14T07:57:49.855Z,6.72
2023-08-14T08:00:19.567Z,4.50
2023-08-14T08:02:47.726Z,3.00
2023-08-14T08:05:17.511Z,3.22
2023-08-14T08:07:47.494Z,3.40
2023-08-14T08:10:15.221Z,3.20
2023-08-14T08:12:43.030Z,3.20
2023-08-14T08:15:12.192Z,2.95
2023-08-14T08:17:41.525Z,2.83
2023-08-14T08:20:10.470Z,2.25
2023-08-14T08:22:38.388Z,2.60
2023-08-14T08:25:07.192Z,2.55
2023-08-14T08:27:37.195Z,2.50
2023-08-14T08:30:06.217Z,2.80
2023-08-14T08:32:34.109Z,3.05
2023-08-14T08:35:03.298Z,2.80
2023-08-14T08:37:31.172Z,2.63
2023-08-14T08:39:59.008Z,2.33
2023-08-14T08:42:27.921Z,2.50
2023-08-14T08:44:57.744Z,2.40
2023-08-14T08:47:30.501Z,3.42
2023-08-14T08:50:00.664Z,2.08
2023-08-14T08:52:30.128Z,2.50
2023-08-14T08:55:02.282Z,2.55
2023-08-14T08:57:30.769Z,2.67
2023-08-14T09:00:02.046Z,2.20
2023-08-14T09:02:30.214Z,2.03
2023-08-14T09:04:58.145Z,2.35
2023-08-14T09:07:26.214Z,2.03
2023-08-14T09:09:55.375Z,2.33
2023-08-14T09:12:23.180Z,2.38
2023-08-14T09:15:05.346Z,1.90
2023-08-14T09:17:33.222Z,2.05
2023-08-14T09:20:03.556Z,2.20
2023-08-14T09:22:33.816Z,2.53
2023-08-14T09:25:03.506Z,2.78
2023-08-14T09:27:31.334Z,1.90
2023-08-14T09:30:00.409Z,2.30
2023-08-14T09:32:28.347Z,2.10
2023-08-14T09:35:00.110Z,2.45
2023-08-14T09:37:28.314Z,2.65
2023-08-14T09:40:16.056Z,2.42
2023-08-14T09:42:44.665Z,2.70
2023-08-14T09:45:14.421Z,2.90
2023-08-14T09:47:45.748Z,3.05
2023-08-14T09:50:15.702Z,2.85
2023-08-14T09:52:45.746Z,2.88
2023-08-14T09:55:16.713Z,2.30
2023-08-14T09:57:45.685Z,2.30
2023-08-14T10:00:14.598Z,2.22
2023-08-14T10:02:45.989Z,2.17
2023-08-14T10:05:14.400Z,2.17
2023-08-14T10:07:42.591Z,2.30
2023-08-14T10:10:12.209Z,2.20
2023-08-14T10:12:47.433Z,2.08
2023-08-14T10:15:18.073Z,2.50
2023-08-14T10:17:51.532Z,2.45
2023-08-14T10:20:23.210Z,3.97
2023-08-14T10:22:53.753Z,2.10
2023-08-14T10:25:23.716Z,2.60
2023-08-14T10:27:53.951Z,2.45
2023-08-14T10:30:24.859Z,4.47
2023-08-14T10:32:53.798Z,2.85
2023-08-14T10:35:24.948Z,2.35
2023-08-14T10:38:08.464Z,2.42
2023-08-14T10:40:38.702Z,3.05
2023-08-14T10:43:08.416Z,2.80
2023-08-14T10:45:36.311Z,2.10
2023-08-14T10:48:10.862Z,2.42
2023-08-14T10:50:38.744Z,2.45
2023-08-14T10:53:07.527Z,2.65
2023-08-14T10:55:41.564Z,2.80
2023-08-14T10:58:41.977Z,2.50
2023-08-14T11:01:11.593Z,2.80
2023-08-14T11:04:00.952Z,2.60
2023-08-14T11:06:29.809Z,2.63
2023-08-14T11:09:05.205Z,2.97
2023-08-14T11:11:33.077Z,2.60
2023-08-14T11:14:02.449Z,2.80
2023-08-14T11:16:30.740Z,2.83
2023-08-14T11:18:59.279Z,2.63
2023-08-14T11:21:32.116Z,2.70
2023-08-14T11:24:00.848Z,3.08
2023-08-14T11:26:30.908Z,2.80
2023-08-14T11:28:58.754Z,2.28
2023-08-14T11:31:34.341Z,2.50
2023-08-14T11:34:02.885Z,3.10
2023-08-14T11:39:01.602Z,2.45
2023-08-14T11:41:31.580Z,2.85
2023-08-14T11:44:00.101Z,2.60
2023-08-14T11:46:29.353Z,2.85
2023-08-14T11:48:57.379Z,2.17
2023-08-14T11:51:25.920Z,2.45
2023-08-14T11:53:54.364Z,2.65
2023-08-14T11:56:22.274Z,2.13
2023-08-14T11:58:57.674Z,2.47
2023-08-14T12:01:37.483Z,2.30
2023-08-14T12:04:06.736Z,2.33
2023-08-14T12:06:35.642Z,2.45
2023-08-14T12:09:03.628Z,2.28
2023-08-14T12:11:31.500Z,2.20
2023-08-14T12:13:59.284Z,2.40
2023-08-14T12:16:28.801Z,2.60
2023-08-14T12:18:58.879Z,2.38
2023-08-14T12:21:27.698Z,2.40
2023-08-14T12:23:57.090Z,2.30
2023-08-14T12:26:25.120Z,2.60
2023-08-14T12:28:53.100Z,2.30
2023-08-14T12:31:21.052Z,2.80
2023-08-14T12:33:53.460Z,2.30
2023-08-14T12:36:26.000Z,2.58
2023-08-14T12:38:53.793Z,2.30
2023-08-14T12:41:21.698Z,2.30
2023-08-14T12:43:49.550Z,2.40
2023-08-14T12:46:17.434Z,2.30
2023-08-14T12:48:45.268Z,2.35
2023-08-14T12:51:13.043Z,2.13
2023-08-14T12:53:42.158Z,2.45
2023-08-14T12:56:10.014Z,2.50
2023-08-14T12:58:37.815Z,2.88
2023-08-14T13:01:06.230Z,2.30
2023-08-14T13:03:36.777Z,2.53
2023-08-14T13:06:07.907Z,2.58
2023-08-14T13:08:35.892Z,2.38
2023-08-14T13:11:05.099Z,2.03
2023-08-14T13:13:32.942Z,2.67
2023-08-14T13:16:02.351Z,3.13
2023-08-14T13:18:30.233Z,2.53
2023-08-14T13:20:58.013Z,3.05
2023-08-14T13:23:25.919Z,2.60
2023-08-14T13:25:53.844Z,2.30
2023-08-14T13:28:22.958Z,2.53
2023-08-14T13:30:51.505Z,2.40
2023-08-14T13:33:19.678Z,2.50
2023-08-14T13:35:47.701Z,2.80
2023-08-14T13:38:15.530Z,2.83
2023-08-14T13:40:43.868Z,2.45
2023-08-14T13:43:11.756Z,2.60
2023-08-14T13:45:42.512Z,3.03
2023-08-14T13:48:12.451Z,2.60
2023-08-14T13:50:42.979Z,2.55
2023-08-14T13:53:11.128Z,2.60
2023-08-14T13:55:43.220Z,2.92
2023-08-14T13:58:11.104Z,2.50
2023-08-14T14:00:40.395Z,2.30
2023-08-14T14:03:08.300Z,2.22
2023-08-14T14:05:36.134Z,2.17
2023-08-14T14:08:04.060Z,2.30
2023-08-14T14:10:32.033Z,2.15
2023-08-14T14:13:02.454Z,2.80
2023-08-14T14:15:31.346Z,2.80
2023-08-14T14:18:00.676Z,2.33
2023-08-14T14:20:28.867Z,2.67
2023-08-14T14:22:56.696Z,2.13
2023-08-14T14:25:24.488Z,2.38
2023-08-14T14:27:52.270Z,2.50
2023-08-14T14:30:20.051Z,2.30
2023-08-14T14:32:47.962Z,2.15
2023-08-14T14:35:17.201Z,2.70
2023-08-14T14:37:45.004Z,2.83
2023-08-14T14:40:13.079Z,2.78
2023-08-14T14:42:41.083Z,2.30
2023-08-14T14:45:12.608Z,2.42
2023-08-14T14:47:45.611Z,2.40
2023-08-14T14:50:23.909Z,2.40
2023-08-14T14:52:57.665Z,2.33
2023-08-14T14:55:28.045Z,2.05
2023-08-14T14:57:55.792Z,2.28
2023-08-14T15:00:24.299Z,2.25
2023-08-14T15:02:52.638Z,2.22
2023-08-14T15:07:51.250Z,1.90
2023-08-14T15:10:20.624Z,2.50
2023-08-14T15:12:48.424Z,2.22
2023-08-14T15:15:16.262Z,2.00
2023-08-14T15:17:45.089Z,2.10
2023-08-14T15:20:13.992Z,2.03
2023-08-14T15:22:44.135Z,2.50
2023-08-14T15:25:12.979Z,1.92
2023-08-14T15:27:42.264Z,2.35
2023-08-14T15:30:10.831Z,2.00
2023-08-14T15:32:38.830Z,2.13
2023-08-14T15:35:07.425Z,2.40
2023-08-14T15:37:35.483Z,2.70
2023-08-14T15:40:05.137Z,2.20
2023-08-14T15:42:33.029Z,2.40
2023-08-14T15:45:02.130Z,2.53
2023-08-14T15:47:29.994Z,2.20
2023-08-14T15:49:57.864Z,2.22
2023-08-14T15:52:30.019Z,2.53
2023-08-14T15:54:59.022Z,2.70
2023-08-14T15:57:28.097Z,2.80
2023-08-14T15:59:56.097Z,2.35
2023-08-14T16:02:25.381Z,2.63
2023-08-14T16:04:53.897Z,2.88
2023-08-14T16:07:22.664Z,2.72
2023-08-14T16:09:52.269Z,2.83
2023-08-14T16:12:20.383Z,2.70
2023-08-14T16:14:48.290Z,3.10
2023-08-14T16:17:16.144Z,2.72
2023-08-14T16:19:45.397Z,2.78
2023-08-14T16:22:13.200Z,2.63
2023-08-14T16:24:41.477Z,2.88
2023-08-14T16:27:10.893Z,2.90
2023-08-14T16:29:38.676Z,2.42
2023-08-14T16:32:06.736Z,2.97
2023-08-14T16:34:34.629Z,3.28
2023-08-14T16:37:04.663Z,2.60
2023-08-14T16:39:32.476Z,2.58
2023-08-14T16:42:00.261Z,3.00
2023-08-14T16:44:28.150Z,2.65
2023-08-14T16:46:55.936Z,2.67
2023-08-14T16:49:23.830Z,2.58
2023-08-14T16:51:51.596Z,2.80
2023-08-14T16:54:20.715Z,2.95
2023-08-14T16:56:48.514Z,3.20
2023-08-14T16:59:16.273Z,2.78
2023-08-14T17:01:44.055Z,3.20
2023-08-14T17:04:12.149Z,2.80
2023-08-14T17:06:39.998Z,2.88
2023-08-14T17:09:09.485Z,2.65
2023-08-14T17:11:38.649Z,2.95
2023-08-14T17:14:06.426Z,2.63
2023-08-14T17:16:34.276Z,2.47
2023-08-14T17:19:02.152Z,2.92
2023-08-14T17:21:30.122Z,2.75
2023-08-14T17:23:57.938Z,2.83
2023-08-14T17:26:25.814Z,4.18
2023-08-14T17:28:54.933Z,3.45
2023-08-14T17:31:22.765Z,2.88
2023-08-14T17:33:50.613Z,2.47
2023-08-14T17:36:18.931Z,2.50
2023-08-14T17:38:46.723Z,2.80
2023-08-14T17:41:14.509Z,3.00
2023-08-14T17:43:42.244Z,2.50
2023-08-14T17:46:11.415Z,3.50
2023-08-14T17:48:39.261Z,3.20
2023-08-14T17:51:07.095Z,2.78
2023-08-14T17:53:35.328Z,2.83
2023-08-14T17:56:03.138Z,3.05
2023-08-14T17:58:30.946Z,2.92
2023-08-14T18:00:58.794Z,3.10
2023-08-14T18:03:28.086Z,2.92
2023-08-14T18:05:56.238Z,3.08
2023-08-14T18:08:24.164Z,3.20
2023-08-14T18:10:52.044Z,3.30
2023-08-14T18:13:19.806Z,3.15
2023-08-14T18:15:47.979Z,3.13
2023-08-14T18:18:15.779Z,2.97
2023-08-14T18:20:44.019Z,3.00
2023-08-14T18:23:11.863Z,3.10
2023-08-14T18:25:39.648Z,3.25
2023-08-14T18:28:07.735Z,3.38
2023-08-14T18:30:35.524Z,3.25
2023-08-14T18:33:03.327Z,3.50
2023-08-14T18:35:31.154Z,3.47
2023-08-14T18:38:01.957Z,3.08
2023-08-14T18:40:29.734Z,3.20
2023-08-14T18:42:57.493Z,3.20
2023-08-14T18:45:26.354Z,3.20
2023-08-14T18:47:54.250Z,3.15
2023-08-14T18:50:22.794Z,3.03
2023-08-14T18:52:51.163Z,3.38
2023-08-14T18:55:20.377Z,3.00
2023-08-14T18:57:48.692Z,2.97
2023-08-14T19:00:16.671Z,3.25
2023-08-14T19:02:44.516Z,3.17
2023-08-14T19:05:12.736Z,3.30
2023-08-14T19:07:40.555Z,3.47
2023-08-14T19:10:09.340Z,3.42
2023-08-14T19:12:38.489Z,3.50
2023-08-14T19:15:09.008Z,3.03
2023-08-14T19:17:36.875Z,4.15
2023-08-14T19:20:05.690Z,3.63
2023-08-14T19:22:34.013Z,3.45
2023-08-14T19:25:02.098Z,3.47
2023-08-14T19:27:31.024Z,3.38
2023-08-14T19:30:00.266Z,3.47
2023-08-14T19:32:28.206Z,3.25
2023-08-14T19:34:56.068Z,2.97
2023-08-14T19:37:24.647Z,3.83
2023-08-14T19:39:52.611Z,3.28
2023-08-14T19:42:20.442Z,3.60
2023-08-14T19:44:48.193Z,3.20
2023-08-14T19:47:17.524Z,2.72
2023-08-14T19:49:45.598Z,3.08
2023-08-14T19:52:13.322Z,3.25
2023-08-14T19:54:41.160Z,3.60
2023-08-14T19:57:09.009Z,3.33
2023-08-14T19:59:36.818Z,3.20
2023-08-14T20:02:04.692Z,3.10
2023-08-14T20:04:34.189Z,2.88
2023-08-14T20:07:01.972Z,3.38
2023-08-14T20:09:29.839Z,3.35
2023-08-14T20:11:57.715Z,3.28
2023-08-14T20:14:25.454Z,3.53
2023-08-14T20:16:53.266Z,3.33
2023-08-14T20:19:24.451Z,3.35
2023-08-14T20:21:53.591Z,3.50
2023-08-14T20:24:21.511Z,3.63
2023-08-14T20:26:49.419Z,3.33
2023-08-14T20:29:17.186Z,4.38
2023-08-14T20:31:44.958Z,3.05
2023-08-14T20:34:12.754Z,3.30
2023-08-14T20:36:41.216Z,3.30
2023-08-14T20:39:10.382Z,3.53
2023-08-14T20:41:38.224Z,3.10
2023-08-14T20:44:06.840Z,3.20
2023-08-14T20:46:34.662Z,2.78
2023-08-14T20:49:02.436Z,3.03
2023-08-14T20:51:30.229Z,3.13
2023-08-14T20:53:58.009Z,3.22
2023-08-14T20:56:27.106Z,3.10
2023-08-14T20:58:54.884Z,3.50
2023-08-14T21:01:22.716Z,3.55
2023-08-14T21:03:50.778Z,2.90
2023-08-14T21:06:19.004Z,3.65
2023-08-14T21:08:46.849Z,4.32
2023-08-14T21:11:16.200Z,3.75
2023-08-14T21:13:45.365Z,3.78
2023-08-14T21:16:13.210Z,4.13
2023-08-14T21:18:41.054Z,3.30
2023-08-14T21:21:08.790Z,3.10
2023-08-14T21:23:36.564Z,2.97
2023-08-14T21:26:04.447Z,3.25
2023-08-14T21:28:32.327Z,3.08
2023-08-14T21:31:01.606Z,3.30
2023-08-14T21:33:29.691Z,3.58
2023-08-14T21:35:59.824Z,3.35
2023-08-14T21:38:27.607Z,3.58
2023-08-14T21:40:56.598Z,3.17
2023-08-14T21:43:25.681Z,2.97
2023-08-14T21:45:53.653Z,3.38
2023-08-14T21:48:22.812Z,3.60
2023-08-14T21:50:50.551Z,3.45
2023-08-14T21:53:19.774Z,3.10
2023-08-14T21:55:47.917Z,3.17
2023-08-14T21:58:15.806Z,3.53
2023-08-14T22:00:43.598Z,3.45
2023-08-14T22:03:11.428Z,3.25
2023-08-14T22:05:40.547Z,3.33
2023-08-14T22:08:08.297Z,3.10
2023-08-14T22:10:36.156Z,3.30
2023-08-14T22:13:04.702Z,3.08
2023-08-14T22:15:44.736Z,3.40
2023-08-14T22:18:14.320Z,3.22
2023-08-14T22:20:43.660Z,3.42
2023-08-14T22:23:13.601Z,3.60
2023-08-14T22:25:42.634Z,3.20
2023-08-14T22:28:10.374Z,3.58
2023-08-14T22:30:38.240Z,2.83
2023-08-14T22:33:06.545Z,3.17
2023-08-14T22:35:34.444Z,3.30
2023-08-14T22:38:03.540Z,2.70
2023-08-14T22:40:31.318Z,3.22
2023-08-14T22:42:59.057Z,2.90
2023-08-14T22:45:31.103Z,3.20
2023-08-14T22:47:59.067Z,3.25
2023-08-14T22:50:26.835Z,2.97
2023-08-14T22:52:54.621Z,3.58
2023-08-14T22:55:23.761Z,3.30
2023-08-14T22:57:51.890Z,3.53
2023-08-14T23:00:19.647Z,3.50
2023-08-14T23:02:47.551Z,3.42
2023-08-14T23:05:15.397Z,2.90
2023-08-14T23:07:43.230Z,4.07
2023-08-14T23:10:11.383Z,3.90
2023-08-14T23:12:40.510Z,2.97
2023-08-14T23:15:09.337Z,3.35
2023-08-14T23:17:37.132Z,3.22
2023-08-14T23:20:06.081Z,3.08
2023-08-14T23:22:33.869Z,3.17
2023-08-14T23:25:01.661Z,3.33
2023-08-14T23:27:29.448Z,3.17
2023-08-14T23:29:58.602Z,3.50
2023-08-14T23:32:26.471Z,3.40
2023-08-14T23:34:54.856Z,3.33
2023-08-14T23:37:22.992Z,3.67
2023-08-14T23:39:51.109Z,3.50
2023-08-14T23:42:19.740Z,3.53
2023-08-14T23:44:47.523Z,3.50
2023-08-14T23:47:16.626Z,3.50
2023-08-14T23:49:46.284Z,3.70
2023-08-14T23:52:14.099Z,3.67
2023-08-14T23:54:43.006Z,3.40
2023-08-14T23:57:10.868Z,3.38
2023-08-14T23:59:38.638Z,3.60
